METAR és
SPECI
METAR LHBP 242200Z 10004KT 070V130 CAVOK 24/20 Q1017 NOSIG=
METAR LHBP 242130Z 09005KT CAVOK 25/20 Q1017 NOSIG=
METAR LHBP 242100Z 10004KT CAVOK 26/20 Q1016 NOSIG=
METAR LHBP 242030Z 12008KT CAVOK 28/20 Q1017 NOSIG=
METAR LHBP 242000Z 09008KT 9999 FEW040CB SCT070 28/21 Q1017 TEMPO -TSRA=
METAR LHBP 241930Z 07004KT 9999 FEW040CB SCT070 27/21 Q1016 TEMPO -TSRA=
METAR LHBP 241900Z 08005KT CAVOK 28/21 Q1016 NOSIG=
METAR LHBP 241830Z 09005KT CAVOK 28/20 Q1016 NOSIG=
METAR LHBP 241800Z 11006KT CAVOK 31/20 Q1016 NOSIG=
METAR LHBP 241730Z 12007KT CAVOK 31/19 Q1016 NOSIG=
METAR LHBP 241700Z 13009KT CAVOK 32/19 Q1016 NOSIG=
METAR LHBP 241630Z 16009KT 120V190 CAVOK 34/18 Q1016 NOSIG=
METAR LHBP 241600Z 16008KT 130V210 CAVOK 34/19 Q1016 NOSIG=
METAR LHBP 241530Z 14008KT 100V170 CAVOK 34/19 Q1016 NOSIG=
METAR LHBP 241500Z 12005KT 030V170 CAVOK 34/19 Q1016 NOSIG=
TAF
TAF AMD LHBP 241920Z 2419/2518 VRB03KT CAVOK TEMPO 2419/2424 VRB15G25KT 4000 TSRA SCT040CB BKN070 TEMPO 2507/2511 SCT045 BECMG 2508/2510 16009KT=
GAMET
Nincs érvényes távirat! 
FAHU41 LHBM 241100
LHCC GAMET VALID 241200/241800 LHBP-
BUDAPEST FIR BLW FL100
SECN 1
SIGWX: ISOL TS
SIG CLD: ISOL TCU CB 4000-5500/XXX FT AGL
SIGMETS APPLICABLE: NIL=
OMSZ: 2016. június 24. 13:00 (11:00  UTC)
[FAHU41]
AIRMET
Nincs érvényes távirat! 
WAHU41 LHBM 091615
LHCC AIRMET 03 VALID 091615/091730 LHBP-
LHCC BUDAPEST FIR ISOL TS OBS N4627 E01658 TOP FL300 STNR
WKN=
OMSZ: 2016. június 9. 18:20 (16:20  UTC)
[WAHU41]
SIGMET
Nincs érvényes távirat! 
WSHU31 LHBM 242015
LHCC SIGMET 02 VALID 242015/242115 LHBP-
LHCC BUDAPEST FIR CNL SIGMET 01 241915/242115=
OMSZ: 2016. június 24. 22:20 (20:20  UTC)
[WSHU31]
SIGMET
Vulkáni hamufelhő
Nincs érvényes távirat! 
WVHU31 LHBM 271515 CCA
LHCC SIGMET 03 VALID 271515/271800 LHBP-
LHCC BUDAPEST FIR EXERCISE VOLCEX12/01
CNL VA SIGMET 02 271200/271800
EXERCISE EXERCISE EXERCISE VOLCEX12/01=
OMSZ: 2015. április 14. 15:15 (13:15  UTC)
[WVHU31]